sensor_id;sensor_type;location;lat;lon;timestamp;P1;durP1;ratioP1;P2;durP2;ratioP2
21507;SDS011;10915;54.352;9.074;2024-03-02T00:00:04;59.67;;;40.13;;
21507;SDS011;10915;54.352;9.074;2024-03-02T00:02:42;59.47;;;40.27;;
21507;SDS011;10915;54.352;9.074;2024-03-02T00:05:15;56.70;;;38.60;;
21507;SDS011;10915;54.352;9.074;2024-03-02T00:07:42;54.30;;;38.63;;
21507;SDS011;10915;54.352;9.074;2024-03-02T00:10:10;55.03;;;40.03;;
21507;SDS011;10915;54.352;9.074;2024-03-02T00:12:39;60.73;;;39.37;;
21507;SDS011;10915;54.352;9.074;2024-03-02T00:17:55;63.00;;;40.07;;
21507;SDS011;10915;54.352;9.074;2024-03-02T00:20:22;63.53;;;41.23;;
21507;SDS011;10915;54.352;9.074;2024-03-02T00:22:48;57.23;;;39.83;;
21507;SDS011;10915;54.352;9.074;2024-03-02T00:25:15;60.80;;;39.63;;
21507;SDS011;10915;54.352;9.074;2024-03-02T00:27:41;54.37;;;39.97;;
21507;SDS011;10915;54.352;9.074;2024-03-02T00:33:28;59.20;;;40.70;;
21507;SDS011;10915;54.352;9.074;2024-03-02T00:35:56;56.47;;;38.97;;
21507;SDS011;10915;54.352;9.074;2024-03-02T00:38:22;54.63;;;37.43;;
21507;SDS011;10915;54.352;9.074;2024-03-02T00:40:49;60.20;;;38.83;;
21507;SDS011;10915;54.352;9.074;2024-03-02T00:44:00;66.27;;;41.13;;
21507;SDS011;10915;54.352;9.074;2024-03-02T00:46:04;52.53;;;37.43;;
21507;SDS011;10915;54.352;9.074;2024-03-02T00:48:29;57.80;;;38.53;;
21507;SDS011;10915;54.352;9.074;2024-03-02T00:51:02;63.30;;;40.20;;
21507;SDS011;10915;54.352;9.074;2024-03-02T00:53:32;56.73;;;38.87;;
21507;SDS011;10915;54.352;9.074;2024-03-02T00:55:58;53.70;;;37.27;;
21507;SDS011;10915;54.352;9.074;2024-03-02T00:58:25;54.77;;;37.50;;
21507;SDS011;10915;54.352;9.074;2024-03-02T01:00:50;57.67;;;38.40;;
21507;SDS011;10915;54.352;9.074;2024-03-02T01:03:16;59.10;;;38.87;;
21507;SDS011;10915;54.352;9.074;2024-03-02T01:05:41;52.13;;;37.50;;
21507;SDS011;10915;54.352;9.074;2024-03-02T01:08:08;56.87;;;37.80;;
21507;SDS011;10915;54.352;9.074;2024-03-02T01:10:34;50.57;;;36.10;;
21507;SDS011;10915;54.352;9.074;2024-03-02T01:13:00;56.17;;;37.77;;
21507;SDS011;10915;54.352;9.074;2024-03-02T01:15:25;58.83;;;39.27;;
21507;SDS011;10915;54.352;9.074;2024-03-02T01:17:51;52.13;;;36.60;;
21507;SDS011;10915;54.352;9.074;2024-03-02T01:20:17;49.40;;;35.67;;
21507;SDS011;10915;54.352;9.074;2024-03-02T01:22:42;51.37;;;35.40;;
21507;SDS011;10915;54.352;9.074;2024-03-02T01:25:08;53.63;;;37.77;;
21507;SDS011;10915;54.352;9.074;2024-03-02T01:27:35;57.20;;;38.40;;
21507;SDS011;10915;54.352;9.074;2024-03-02T01:30:00;61.10;;;41.30;;
21507;SDS011;10915;54.352;9.074;2024-03-02T01:32:26;60.97;;;39.53;;
21507;SDS011;10915;54.352;9.074;2024-03-02T01:34:52;61.00;;;40.97;;
21507;SDS011;10915;54.352;9.074;2024-03-02T01:37:17;56.73;;;38.63;;
21507;SDS011;10915;54.352;9.074;2024-03-02T01:39:43;60.03;;;40.97;;
21507;SDS011;10915;54.352;9.074;2024-03-02T01:42:08;61.03;;;39.93;;
21507;SDS011;10915;54.352;9.074;2024-03-02T01:44:35;63.43;;;42.17;;
21507;SDS011;10915;54.352;9.074;2024-03-02T01:47:01;64.20;;;42.20;;
21507;SDS011;10915;54.352;9.074;2024-03-02T01:49:27;68.93;;;42.77;;
21507;SDS011;10915;54.352;9.074;2024-03-02T01:51:52;62.00;;;42.17;;
21507;SDS011;10915;54.352;9.074;2024-03-02T01:54:18;61.60;;;40.87;;
21507;SDS011;10915;54.352;9.074;2024-03-02T01:56:46;59.63;;;38.80;;
21507;SDS011;10915;54.352;9.074;2024-03-02T01:59:11;71.53;;;44.50;;
21507;SDS011;10915;54.352;9.074;2024-03-02T02:01:38;63.30;;;41.47;;
21507;SDS011;10915;54.352;9.074;2024-03-02T02:04:04;67.40;;;42.30;;
21507;SDS011;10915;54.352;9.074;2024-03-02T02:06:31;59.53;;;40.27;;
21507;SDS011;10915;54.352;9.074;2024-03-02T02:08:57;62.27;;;40.23;;
21507;SDS011;10915;54.352;9.074;2024-03-02T02:11:23;61.23;;;41.40;;
21507;SDS011;10915;54.352;9.074;2024-03-02T02:13:49;51.37;;;36.33;;
21507;SDS011;10915;54.352;9.074;2024-03-02T02:16:15;59.07;;;38.50;;
21507;SDS011;10915;54.352;9.074;2024-03-02T02:18:40;63.77;;;41.40;;
21507;SDS011;10915;54.352;9.074;2024-03-02T02:21:06;57.53;;;40.43;;
21507;SDS011;10915;54.352;9.074;2024-03-02T02:23:32;67.37;;;42.07;;
21507;SDS011;10915;54.352;9.074;2024-03-02T02:25:57;67.73;;;42.27;;
21507;SDS011;10915;54.352;9.074;2024-03-02T02:28:23;63.20;;;41.30;;
21507;SDS011;10915;54.352;9.074;2024-03-02T02:30:48;58.77;;;39.10;;
21507;SDS011;10915;54.352;9.074;2024-03-02T02:33:14;64.33;;;41.63;;
21507;SDS011;10915;54.352;9.074;2024-03-02T02:35:40;58.77;;;40.43;;
21507;SDS011;10915;54.352;9.074;2024-03-02T02:38:06;61.17;;;39.67;;
21507;SDS011;10915;54.352;9.074;2024-03-02T02:40:31;65.83;;;41.07;;
21507;SDS011;10915;54.352;9.074;2024-03-02T02:42:58;66.30;;;42.70;;
21507;SDS011;10915;54.352;9.074;2024-03-02T02:45:24;62.33;;;40.73;;
21507;SDS011;10915;54.352;9.074;2024-03-02T02:47:50;70.60;;;44.03;;
21507;SDS011;10915;54.352;9.074;2024-03-02T02:50:15;65.50;;;42.13;;
21507;SDS011;10915;54.352;9.074;2024-03-02T02:52:41;68.20;;;41.57;;
21507;SDS011;10915;54.352;9.074;2024-03-02T02:55:11;65.23;;;41.50;;
21507;SDS011;10915;54.352;9.074;2024-03-02T02:57:39;66.97;;;43.10;;
21507;SDS011;10915;54.352;9.074;2024-03-02T03:00:10;62.30;;;40.67;;
21507;SDS011;10915;54.352;9.074;2024-03-02T03:02:41;69.97;;;42.67;;
21507;SDS011;10915;54.352;9.074;2024-03-02T03:05:07;66.43;;;41.00;;
21507;SDS011;10915;54.352;9.074;2024-03-02T03:07:34;66.33;;;42.33;;
21507;SDS011;10915;54.352;9.074;2024-03-02T03:10:00;60.60;;;40.70;;
21507;SDS011;10915;54.352;9.074;2024-03-02T03:12:26;65.77;;;41.63;;
21507;SDS011;10915;54.352;9.074;2024-03-02T03:14:51;63.33;;;41.63;;
21507;SDS011;10915;54.352;9.074;2024-03-02T03:17:17;62.27;;;40.40;;
21507;SDS011;10915;54.352;9.074;2024-03-02T03:19:43;65.40;;;41.83;;
21507;SDS011;10915;54.352;9.074;2024-03-02T03:22:08;62.00;;;39.77;;
21507;SDS011;10915;54.352;9.074;2024-03-02T03:24:34;63.27;;;40.83;;
21507;SDS011;10915;54.352;9.074;2024-03-02T03:27:00;61.77;;;42.23;;
21507;SDS011;10915;54.352;9.074;2024-03-02T03:29:26;61.53;;;38.97;;
21507;SDS011;10915;54.352;9.074;2024-03-02T03:31:51;57.70;;;36.70;;
21507;SDS011;10915;54.352;9.074;2024-03-02T03:34:17;57.47;;;38.53;;
21507;SDS011;10915;54.352;9.074;2024-03-02T03:36:42;66.50;;;42.40;;
21507;SDS011;10915;54.352;9.074;2024-03-02T03:39:08;62.77;;;40.17;;
21507;SDS011;10915;54.352;9.074;2024-03-02T03:41:34;58.43;;;39.40;;
21507;SDS011;10915;54.352;9.074;2024-03-02T03:43:59;64.07;;;40.57;;
21507;SDS011;10915;54.352;9.074;2024-03-02T03:46:25;59.83;;;39.03;;
21507;SDS011;10915;54.352;9.074;2024-03-02T03:48:50;63.73;;;42.30;;
21507;SDS011;10915;54.352;9.074;2024-03-02T03:51:16;69.23;;;41.03;;
21507;SDS011;10915;54.352;9.074;2024-03-02T03:53:41;66.20;;;41.63;;
21507;SDS011;10915;54.352;9.074;2024-03-02T03:56:07;60.83;;;39.93;;
21507;SDS011;10915;54.352;9.074;2024-03-02T03:58:33;61.07;;;41.10;;
21507;SDS011;10915;54.352;9.074;2024-03-02T04:00:58;65.17;;;40.17;;
21507;SDS011;10915;54.352;9.074;2024-03-02T04:03:24;65.87;;;41.67;;
21507;SDS011;10915;54.352;9.074;2024-03-02T04:05:50;67.07;;;41.93;;
21507;SDS011;10915;54.352;9.074;2024-03-02T04:08:17;69.33;;;41.80;;
21507;SDS011;10915;54.352;9.074;2024-03-02T04:10:42;62.13;;;41.40;;
21507;SDS011;10915;54.352;9.074;2024-03-02T04:13:08;61.10;;;39.90;;
21507;SDS011;10915;54.352;9.074;2024-03-02T04:15:34;69.10;;;41.40;;
21507;SDS011;10915;54.352;9.074;2024-03-02T04:18:00;66.30;;;42.07;;
21507;SDS011;10915;54.352;9.074;2024-03-02T04:20:25;69.33;;;43.50;;
21507;SDS011;10915;54.352;9.074;2024-03-02T04:22:51;67.10;;;44.33;;
21507;SDS011;10915;54.352;9.074;2024-03-02T04:25:17;70.10;;;42.50;;
21507;SDS011;10915;54.352;9.074;2024-03-02T04:27:42;69.27;;;43.93;;
21507;SDS011;10915;54.352;9.074;2024-03-02T04:30:08;76.07;;;45.27;;
21507;SDS011;10915;54.352;9.074;2024-03-02T04:32:34;64.40;;;41.50;;
21507;SDS011;10915;54.352;9.074;2024-03-02T04:35:01;67.40;;;42.07;;
21507;SDS011;10915;54.352;9.074;2024-03-02T04:37:26;75.37;;;46.53;;
21507;SDS011;10915;54.352;9.074;2024-03-02T04:39:52;74.30;;;44.83;;
21507;SDS011;10915;54.352;9.074;2024-03-02T04:42:18;70.33;;;42.77;;
21507;SDS011;10915;54.352;9.074;2024-03-02T04:44:43;70.43;;;42.63;;
21507;SDS011;10915;54.352;9.074;2024-03-02T04:47:09;76.83;;;44.80;;
21507;SDS011;10915;54.352;9.074;2024-03-02T04:49:34;76.57;;;45.00;;
21507;SDS011;10915;54.352;9.074;2024-03-02T04:52:00;80.70;;;45.83;;
21507;SDS011;10915;54.352;9.074;2024-03-02T04:54:26;73.67;;;46.37;;
21507;SDS011;10915;54.352;9.074;2024-03-02T04:56:52;76.40;;;46.57;;
21507;SDS011;10915;54.352;9.074;2024-03-02T04:59:18;75.20;;;46.13;;
21507;SDS011;10915;54.352;9.074;2024-03-02T05:01:43;82.07;;;46.83;;
21507;SDS011;10915;54.352;9.074;2024-03-02T05:04:09;80.30;;;48.60;;
21507;SDS011;10915;54.352;9.074;2024-03-02T05:06:36;74.17;;;45.33;;
21507;SDS011;10915;54.352;9.074;2024-03-02T05:09:04;79.73;;;48.83;;
21507;SDS011;10915;54.352;9.074;2024-03-02T05:11:29;78.20;;;47.27;;
21507;SDS011;10915;54.352;9.074;2024-03-02T05:14:04;80.00;;;48.50;;
21507;SDS011;10915;54.352;9.074;2024-03-02T05:16:34;85.83;;;49.23;;
21507;SDS011;10915;54.352;9.074;2024-03-02T05:19:01;65.17;;;38.67;;
21507;SDS011;10915;54.352;9.074;2024-03-02T05:21:27;73.90;;;46.53;;
21507;SDS011;10915;54.352;9.074;2024-03-02T05:23:53;79.63;;;46.37;;
21507;SDS011;10915;54.352;9.074;2024-03-02T05:26:18;79.97;;;48.40;;
21507;SDS011;10915;54.352;9.074;2024-03-02T05:28:44;84.27;;;48.50;;
21507;SDS011;10915;54.352;9.074;2024-03-02T05:31:10;84.23;;;49.83;;
21507;SDS011;10915;54.352;9.074;2024-03-02T05:33:39;76.33;;;47.47;;
21507;SDS011;10915;54.352;9.074;2024-03-02T05:36:05;79.73;;;49.33;;
21507;SDS011;10915;54.352;9.074;2024-03-02T05:38:31;87.43;;;51.73;;
21507;SDS011;10915;54.352;9.074;2024-03-02T05:40:59;78.80;;;48.87;;
21507;SDS011;10915;54.352;9.074;2024-03-02T05:43:25;89.10;;;49.50;;
21507;SDS011;10915;54.352;9.074;2024-03-02T05:45:50;85.63;;;49.97;;
21507;SDS011;10915;54.352;9.074;2024-03-02T05:48:16;85.67;;;49.43;;
21507;SDS011;10915;54.352;9.074;2024-03-02T05:50:41;82.80;;;49.90;;
21507;SDS011;10915;54.352;9.074;2024-03-02T05:53:07;80.70;;;48.57;;
21507;SDS011;10915;54.352;9.074;2024-03-02T05:55:33;91.57;;;52.37;;
21507;SDS011;10915;54.352;9.074;2024-03-02T05:57:58;79.97;;;49.40;;
21507;SDS011;10915;54.352;9.074;2024-03-02T06:00:42;75.67;;;48.77;;
21507;SDS011;10915;54.352;9.074;2024-03-02T06:03:08;88.60;;;50.07;;
21507;SDS011;10915;54.352;9.074;2024-03-02T06:05:34;82.37;;;49.80;;
21507;SDS011;10915;54.352;9.074;2024-03-02T06:08:00;79.83;;;47.70;;
21507;SDS011;10915;54.352;9.074;2024-03-02T06:10:25;91.00;;;51.43;;
21507;SDS011;10915;54.352;9.074;2024-03-02T06:12:51;84.00;;;51.20;;
21507;SDS011;10915;54.352;9.074;2024-03-02T06:15:16;89.53;;;50.63;;
21507;SDS011;10915;54.352;9.074;2024-03-02T06:17:42;87.17;;;50.63;;
21507;SDS011;10915;54.352;9.074;2024-03-02T06:20:08;84.03;;;49.83;;
21507;SDS011;10915;54.352;9.074;2024-03-02T06:22:34;83.27;;;48.80;;
21507;SDS011;10915;54.352;9.074;2024-03-02T06:25:00;93.83;;;52.23;;
21507;SDS011;10915;54.352;9.074;2024-03-02T06:27:25;85.37;;;52.07;;
21507;SDS011;10915;54.352;9.074;2024-03-02T06:29:51;86.80;;;52.23;;
21507;SDS011;10915;54.352;9.074;2024-03-02T06:32:17;92.90;;;51.63;;
21507;SDS011;10915;54.352;9.074;2024-03-02T06:34:43;86.83;;;49.53;;
21507;SDS011;10915;54.352;9.074;2024-03-02T06:37:10;98.37;;;53.30;;
21507;SDS011;10915;54.352;9.074;2024-03-02T06:39:35;83.47;;;50.47;;
21507;SDS011;10915;54.352;9.074;2024-03-02T06:42:01;89.60;;;51.47;;
21507;SDS011;10915;54.352;9.074;2024-03-02T06:44:26;67.57;;;43.53;;
21507;SDS011;10915;54.352;9.074;2024-03-02T06:46:52;77.50;;;48.20;;
21507;SDS011;10915;54.352;9.074;2024-03-02T06:49:18;79.33;;;47.37;;
21507;SDS011;10915;54.352;9.074;2024-03-02T06:51:44;78.40;;;49.37;;
21507;SDS011;10915;54.352;9.074;2024-03-02T06:54:09;82.70;;;49.97;;
21507;SDS011;10915;54.352;9.074;2024-03-02T06:56:35;79.17;;;48.03;;
21507;SDS011;10915;54.352;9.074;2024-03-02T06:59:00;69.70;;;42.87;;
21507;SDS011;10915;54.352;9.074;2024-03-02T07:01:26;72.03;;;44.73;;
21507;SDS011;10915;54.352;9.074;2024-03-02T07:03:53;70.20;;;46.87;;
21507;SDS011;10915;54.352;9.074;2024-03-02T07:06:18;67.93;;;43.33;;
21507;SDS011;10915;54.352;9.074;2024-03-02T07:08:44;54.50;;;39.23;;
21507;SDS011;10915;54.352;9.074;2024-03-02T07:11:10;62.97;;;42.57;;
21507;SDS011;10915;54.352;9.074;2024-03-02T07:13:35;56.10;;;39.47;;
21507;SDS011;10915;54.352;9.074;2024-03-02T07:16:01;56.13;;;39.17;;
21507;SDS011;10915;54.352;9.074;2024-03-02T07:18:35;51.40;;;37.53;;
21507;SDS011;10915;54.352;9.074;2024-03-02T07:21:10;50.67;;;35.47;;
21507;SDS011;10915;54.352;9.074;2024-03-02T07:23:35;54.87;;;38.50;;
21507;SDS011;10915;54.352;9.074;2024-03-02T07:26:01;50.97;;;36.07;;
21507;SDS011;10915;54.352;9.074;2024-03-02T07:28:28;49.00;;;35.43;;
21507;SDS011;10915;54.352;9.074;2024-03-02T07:31:00;44.27;;;33.83;;
21507;SDS011;10915;54.352;9.074;2024-03-02T07:33:26;41.00;;;30.93;;
21507;SDS011;10915;54.352;9.074;2024-03-02T07:35:52;43.40;;;31.87;;
21507;SDS011;10915;54.352;9.074;2024-03-02T07:38:19;40.70;;;30.27;;
21507;SDS011;10915;54.352;9.074;2024-03-02T07:40:44;36.80;;;29.23;;
21507;SDS011;10915;54.352;9.074;2024-03-02T07:43:10;40.97;;;31.20;;
21507;SDS011;10915;54.352;9.074;2024-03-02T07:45:36;37.00;;;29.70;;
21507;SDS011;10915;54.352;9.074;2024-03-02T07:48:02;37.17;;;29.40;;
21507;SDS011;10915;54.352;9.074;2024-03-02T07:50:29;36.67;;;28.30;;
21507;SDS011;10915;54.352;9.074;2024-03-02T07:52:55;34.87;;;27.83;;
21507;SDS011;10915;54.352;9.074;2024-03-02T07:55:21;33.63;;;26.90;;
21507;SDS011;10915;54.352;9.074;2024-03-02T07:57:48;38.03;;;27.23;;
21507;SDS011;10915;54.352;9.074;2024-03-02T08:00:32;32.40;;;24.90;;
21507;SDS011;10915;54.352;9.074;2024-03-02T08:03:14;34.17;;;26.67;;
21507;SDS011;10915;54.352;9.074;2024-03-02T08:05:40;34.53;;;25.97;;
21507;SDS011;10915;54.352;9.074;2024-03-02T08:08:06;32.37;;;25.47;;
21507;SDS011;10915;54.352;9.074;2024-03-02T08:10:31;31.07;;;25.47;;
21507;SDS011;10915;54.352;9.074;2024-03-02T08:12:58;33.83;;;24.50;;
21507;SDS011;10915;54.352;9.074;2024-03-02T08:15:24;34.80;;;24.60;;
21507;SDS011;10915;54.352;9.074;2024-03-02T08:17:49;34.97;;;25.10;;
21507;SDS011;10915;54.352;9.074;2024-03-02T08:20:15;30.00;;;22.90;;
21507;SDS011;10915;54.352;9.074;2024-03-02T08:22:41;29.23;;;22.20;;
21507;SDS011;10915;54.352;9.074;2024-03-02T08:25:07;30.87;;;22.63;;
21507;SDS011;10915;54.352;9.074;2024-03-02T08:27:33;30.93;;;22.70;;
21507;SDS011;10915;54.352;9.074;2024-03-02T08:29:59;26.77;;;20.73;;
21507;SDS011;10915;54.352;9.074;2024-03-02T08:32:24;28.03;;;21.70;;
21507;SDS011;10915;54.352;9.074;2024-03-02T08:34:50;28.90;;;21.53;;
21507;SDS011;10915;54.352;9.074;2024-03-02T08:37:16;30.03;;;20.63;;
21507;SDS011;10915;54.352;9.074;2024-03-02T08:39:41;29.03;;;20.77;;
21507;SDS011;10915;54.352;9.074;2024-03-02T08:42:07;27.33;;;19.73;;
21507;SDS011;10915;54.352;9.074;2024-03-02T08:44:33;29.87;;;20.90;;
21507;SDS011;10915;54.352;9.074;2024-03-02T08:46:58;25.80;;;19.23;;
21507;SDS011;10915;54.352;9.074;2024-03-02T08:49:24;26.63;;;19.13;;
21507;SDS011;10915;54.352;9.074;2024-03-02T08:51:50;27.20;;;19.20;;
21507;SDS011;10915;54.352;9.074;2024-03-02T08:54:20;28.20;;;19.67;;
21507;SDS011;10915;54.352;9.074;2024-03-02T08:56:47;24.23;;;18.90;;
21507;SDS011;10915;54.352;9.074;2024-03-02T08:59:13;24.87;;;18.80;;
21507;SDS011;10915;54.352;9.074;2024-03-02T09:01:39;25.77;;;19.57;;
21507;SDS011;10915;54.352;9.074;2024-03-02T09:04:06;27.50;;;19.40;;
21507;SDS011;10915;54.352;9.074;2024-03-02T09:06:33;23.37;;;17.30;;
21507;SDS011;10915;54.352;9.074;2024-03-02T09:08:59;23.63;;;17.63;;
21507;SDS011;10915;54.352;9.074;2024-03-02T09:11:25;22.37;;;17.00;;
21507;SDS011;10915;54.352;9.074;2024-03-02T09:13:51;23.90;;;16.97;;
21507;SDS011;10915;54.352;9.074;2024-03-02T09:16:16;21.37;;;16.20;;
21507;SDS011;10915;54.352;9.074;2024-03-02T09:18:42;22.43;;;17.00;;
21507;SDS011;10915;54.352;9.074;2024-03-02T09:21:07;26.73;;;16.97;;
21507;SDS011;10915;54.352;9.074;2024-03-02T09:23:33;22.43;;;17.13;;
21507;SDS011;10915;54.352;9.074;2024-03-02T09:25:59;19.43;;;15.40;;
21507;SDS011;10915;54.352;9.074;2024-03-02T09:28:24;20.23;;;15.40;;
21507;SDS011;10915;54.352;9.074;2024-03-02T09:30:50;20.40;;;15.00;;
21507;SDS011;10915;54.352;9.074;2024-03-02T09:33:16;24.20;;;16.27;;
21507;SDS011;10915;54.352;9.074;2024-03-02T09:35:41;19.20;;;14.80;;
21507;SDS011;10915;54.352;9.074;2024-03-02T09:38:07;21.43;;;14.87;;
21507;SDS011;10915;54.352;9.074;2024-03-02T09:40:33;19.67;;;14.83;;
21507;SDS011;10915;54.352;9.074;2024-03-02T09:42:58;21.57;;;14.20;;
21507;SDS011;10915;54.352;9.074;2024-03-02T09:45:25;21.37;;;15.03;;
21507;SDS011;10915;54.352;9.074;2024-03-02T09:47:51;21.23;;;14.80;;
21507;SDS011;10915;54.352;9.074;2024-03-02T09:50:17;20.17;;;14.47;;
21507;SDS011;10915;54.352;9.074;2024-03-02T09:52:42;19.97;;;13.90;;
21507;SDS011;10915;54.352;9.074;2024-03-02T09:55:09;19.57;;;14.73;;
21507;SDS011;10915;54.352;9.074;2024-03-02T09:57:36;18.93;;;13.60;;
21507;SDS011;10915;54.352;9.074;2024-03-02T10:00:02;19.33;;;14.37;;
21507;SDS011;10915;54.352;9.074;2024-03-02T10:02:28;18.17;;;14.07;;
21507;SDS011;10915;54.352;9.074;2024-03-02T10:04:53;20.10;;;13.60;;
21507;SDS011;10915;54.352;9.074;2024-03-02T10:07:19;19.37;;;13.60;;
21507;SDS011;10915;54.352;9.074;2024-03-02T10:09:45;17.37;;;13.83;;
21507;SDS011;10915;54.352;9.074;2024-03-02T10:12:13;16.47;;;13.13;;
21507;SDS011;10915;54.352;9.074;2024-03-02T10:14:40;19.80;;;14.50;;
21507;SDS011;10915;54.352;9.074;2024-03-02T10:17:07;20.07;;;14.03;;
21507;SDS011;10915;54.352;9.074;2024-03-02T10:19:34;19.50;;;14.23;;
21507;SDS011;10915;54.352;9.074;2024-03-02T10:22:02;19.60;;;14.30;;
21507;SDS011;10915;54.352;9.074;2024-03-02T10:24:42;21.07;;;14.73;;
21507;SDS011;10915;54.352;9.074;2024-03-02T10:27:18;25.33;;;14.10;;
21507;SDS011;10915;54.352;9.074;2024-03-02T10:29:48;18.70;;;14.17;;
21507;SDS011;10915;54.352;9.074;2024-03-02T10:32:14;17.37;;;13.13;;
21507;SDS011;10915;54.352;9.074;2024-03-02T10:34:41;19.43;;;14.30;;
21507;SDS011;10915;54.352;9.074;2024-03-02T10:37:07;19.97;;;14.00;;
21507;SDS011;10915;54.352;9.074;2024-03-02T10:39:36;17.80;;;12.20;;
21507;SDS011;10915;54.352;9.074;2024-03-02T10:42:03;16.03;;;12.70;;
21507;SDS011;10915;54.352;9.074;2024-03-02T10:44:31;16.83;;;13.10;;
21507;SDS011;10915;54.352;9.074;2024-03-02T10:46:57;17.87;;;13.43;;
21507;SDS011;10915;54.352;9.074;2024-03-02T10:49:27;15.83;;;12.47;;
21507;SDS011;10915;54.352;9.074;2024-03-02T10:51:54;15.43;;;11.87;;
21507;SDS011;10915;54.352;9.074;2024-03-02T10:54:20;16.67;;;12.33;;
21507;SDS011;10915;54.352;9.074;2024-03-02T10:56:51;17.47;;;11.63;;
21507;SDS011;10915;54.352;9.074;2024-03-02T10:59:33;16.07;;;11.37;;
21507;SDS011;10915;54.352;9.074;2024-03-02T11:02:01;16.93;;;11.90;;
21507;SDS011;10915;54.352;9.074;2024-03-02T11:04:28;17.33;;;12.13;;
21507;SDS011;10915;54.352;9.074;2024-03-02T11:06:58;15.27;;;11.93;;
21507;SDS011;10915;54.352;9.074;2024-03-02T11:09:29;14.97;;;11.27;;
21507;SDS011;10915;54.352;9.074;2024-03-02T11:14:44;14.97;;;10.80;;
21507;SDS011;10915;54.352;9.074;2024-03-02T11:17:10;15.50;;;10.57;;
21507;SDS011;10915;54.352;9.074;2024-03-02T11:19:38;15.00;;;10.50;;
21507;SDS011;10915;54.352;9.074;2024-03-02T11:22:05;15.20;;;10.97;;
21507;SDS011;10915;54.352;9.074;2024-03-02T11:24:31;15.43;;;10.73;;
21507;SDS011;10915;54.352;9.074;2024-03-02T11:26:58;15.43;;;10.90;;
21507;SDS011;10915;54.352;9.074;2024-03-02T11:32:04;13.90;;;10.03;;
21507;SDS011;10915;54.352;9.074;2024-03-02T11:34:31;14.50;;;10.17;;
21507;SDS011;10915;54.352;9.074;2024-03-02T11:37:02;14.03;;;10.10;;
21507;SDS011;10915;54.352;9.074;2024-03-02T11:39:29;13.83;;;9.63;;
21507;SDS011;10915;54.352;9.074;2024-03-02T11:41:55;13.30;;;9.77;;
21507;SDS011;10915;54.352;9.074;2024-03-02T11:44:25;19.27;;;9.53;;
21507;SDS011;10915;54.352;9.074;2024-03-02T11:47:06;13.47;;;9.47;;
21507;SDS011;10915;54.352;9.074;2024-03-02T11:52:13;11.23;;;7.47;;
21507;SDS011;10915;54.352;9.074;2024-03-02T11:54:44;11.20;;;8.67;;
21507;SDS011;10915;54.352;9.074;2024-03-02T11:57:12;13.57;;;10.27;;
21507;SDS011;10915;54.352;9.074;2024-03-02T11:59:39;17.23;;;10.53;;
21507;SDS011;10915;54.352;9.074;2024-03-02T12:02:05;13.57;;;10.03;;
21507;SDS011;10915;54.352;9.074;2024-03-02T12:04:31;17.23;;;10.20;;
21507;SDS011;10915;54.352;9.074;2024-03-02T12:07:00;13.33;;;9.93;;
21507;SDS011;10915;54.352;9.074;2024-03-02T12:09:26;13.90;;;9.37;;
21507;SDS011;10915;54.352;9.074;2024-03-02T12:12:03;13.93;;;9.27;;
21507;SDS011;10915;54.352;9.074;2024-03-02T12:14:32;15.00;;;9.93;;
21507;SDS011;10915;54.352;9.074;2024-03-02T12:16:58;11.43;;;8.67;;
21507;SDS011;10915;54.352;9.074;2024-03-02T12:19:25;14.90;;;10.03;;
21507;SDS011;10915;54.352;9.074;2024-03-02T12:21:51;16.93;;;10.53;;
21507;SDS011;10915;54.352;9.074;2024-03-02T12:24:18;14.57;;;10.50;;
21507;SDS011;10915;54.352;9.074;2024-03-02T12:26:43;12.90;;;9.43;;
21507;SDS011;10915;54.352;9.074;2024-03-02T12:29:13;15.63;;;10.00;;
21507;SDS011;10915;54.352;9.074;2024-03-02T12:31:40;15.57;;;9.60;;
21507;SDS011;10915;54.352;9.074;2024-03-02T12:34:06;13.90;;;9.57;;
21507;SDS011;10915;54.352;9.074;2024-03-02T12:36:39;14.83;;;9.97;;
21507;SDS011;10915;54.352;9.074;2024-03-02T12:39:06;12.43;;;9.47;;
21507;SDS011;10915;54.352;9.074;2024-03-02T12:41:35;13.73;;;9.47;;
21507;SDS011;10915;54.352;9.074;2024-03-02T12:44:01;13.03;;;9.13;;
21507;SDS011;10915;54.352;9.074;2024-03-02T12:46:27;13.13;;;8.83;;
21507;SDS011;10915;54.352;9.074;2024-03-02T12:48:53;15.07;;;9.37;;
21507;SDS011;10915;54.352;9.074;2024-03-02T12:51:19;14.27;;;9.20;;
21507;SDS011;10915;54.352;9.074;2024-03-02T12:53:44;14.17;;;9.10;;
21507;SDS011;10915;54.352;9.074;2024-03-02T12:56:10;12.17;;;8.73;;
21507;SDS011;10915;54.352;9.074;2024-03-02T12:58:39;12.83;;;8.93;;
21507;SDS011;10915;54.352;9.074;2024-03-02T13:01:07;13.33;;;8.67;;
21507;SDS011;10915;54.352;9.074;2024-03-02T13:03:38;13.30;;;8.53;;
21507;SDS011;10915;54.352;9.074;2024-03-02T13:06:04;11.13;;;8.73;;
21507;SDS011;10915;54.352;9.074;2024-03-02T13:08:31;15.03;;;8.97;;
21507;SDS011;10915;54.352;9.074;2024-03-02T13:10:57;12.20;;;8.37;;
21507;SDS011;10915;54.352;9.074;2024-03-02T13:13:23;11.87;;;8.50;;
21507;SDS011;10915;54.352;9.074;2024-03-02T13:15:49;13.43;;;9.03;;
21507;SDS011;10915;54.352;9.074;2024-03-02T13:18:14;12.23;;;8.60;;
21507;SDS011;10915;54.352;9.074;2024-03-02T13:20:42;11.73;;;8.50;;
21507;SDS011;10915;54.352;9.074;2024-03-02T13:23:08;14.17;;;8.83;;
21507;SDS011;10915;54.352;9.074;2024-03-02T13:25:34;12.80;;;8.70;;
21507;SDS011;10915;54.352;9.074;2024-03-02T13:27:59;12.80;;;8.77;;
21507;SDS011;10915;54.352;9.074;2024-03-02T13:30:25;12.13;;;8.90;;
21507;SDS011;10915;54.352;9.074;2024-03-02T13:32:51;13.40;;;9.53;;
21507;SDS011;10915;54.352;9.074;2024-03-02T13:35:18;12.83;;;8.27;;
21507;SDS011;10915;54.352;9.074;2024-03-02T13:37:43;14.10;;;8.33;;
21507;SDS011;10915;54.352;9.074;2024-03-02T13:40:09;11.57;;;8.70;;
21507;SDS011;10915;54.352;9.074;2024-03-02T13:42:39;11.00;;;7.80;;
21507;SDS011;10915;54.352;9.074;2024-03-02T13:45:06;13.40;;;9.47;;
21507;SDS011;10915;54.352;9.074;2024-03-02T13:47:32;13.30;;;9.50;;
21507;SDS011;10915;54.352;9.074;2024-03-02T13:49:58;14.10;;;9.20;;
21507;SDS011;10915;54.352;9.074;2024-03-02T13:52:23;13.33;;;9.33;;
21507;SDS011;10915;54.352;9.074;2024-03-02T13:54:50;12.77;;;8.50;;
21507;SDS011;10915;54.352;9.074;2024-03-02T13:57:17;10.67;;;8.07;;
21507;SDS011;10915;54.352;9.074;2024-03-02T13:59:44;12.93;;;8.73;;
21507;SDS011;10915;54.352;9.074;2024-03-02T14:02:11;13.60;;;9.37;;
21507;SDS011;10915;54.352;9.074;2024-03-02T14:04:37;11.57;;;8.27;;
21507;SDS011;10915;54.352;9.074;2024-03-02T14:07:03;12.60;;;8.00;;
21507;SDS011;10915;54.352;9.074;2024-03-02T14:09:32;12.10;;;8.63;;
21507;SDS011;10915;54.352;9.074;2024-03-02T14:11:57;13.03;;;8.80;;
21507;SDS011;10915;54.352;9.074;2024-03-02T14:14:25;15.40;;;9.30;;
21507;SDS011;10915;54.352;9.074;2024-03-02T14:16:52;15.13;;;8.97;;
21507;SDS011;10915;54.352;9.074;2024-03-02T14:19:19;15.43;;;8.90;;
21507;SDS011;10915;54.352;9.074;2024-03-02T14:21:46;15.77;;;10.07;;
21507;SDS011;10915;54.352;9.074;2024-03-02T14:24:12;12.03;;;8.03;;
21507;SDS011;10915;54.352;9.074;2024-03-02T14:26:38;14.13;;;8.33;;
21507;SDS011;10915;54.352;9.074;2024-03-02T14:29:04;10.93;;;7.63;;
21507;SDS011;10915;54.352;9.074;2024-03-02T14:31:30;11.07;;;7.87;;
21507;SDS011;10915;54.352;9.074;2024-03-02T14:33:56;11.53;;;7.30;;